Pagina principale
METAR-TAF:

METAR-TAF

Aeroporti :

Aeroporto di Trapani-Birgi

Trapani, Italia

latitudine: 37-55N, longitudine: 012-30E, altezza: 7 m

Osservazione

Il bollettino è stato emesso 32 minuti fa, alle 13:55 UTC
Vento 11 kt da ovest/nord-ovest
Temperature 26°C
Umidità 61%
Pressione 1009 hPa
Visibilità 10 km o più
Poco nuvoloso ad un'altezza di 2500 ft

METAR: LICT 271355Z 30011KT 9999 FEW025 26/18 Q1009

Ora: 16:27 (14:27 UTC)

Previsione

Il bollettino è stato emesso 3 ore e 27 minuti fa, alle 11:00 UTC
Previsione valida dal 27 alle 12 UTC al 27 alle 21 UTC
Vento 15 kt da ovest/nord-ovest
Visibilità 10 km o più
Nubi sparse ad un'altezza di 2000 ft
Probabilità 30% :
Temporaneamente
dal 27 alle 15 UTC al 27 alle 21 UTC
pioggia

TAF: LICT 271100Z 2712/2721 29015KT 9999 SCT020 PROB30 TEMPO 2715/2721 RA

Osservazioni e previsioni meteorologiche di più di 4000 aeroporti (messaggi METAR e TAF).

Le stazioni disponibili sono rappresentate dai dischi gialli e rossi sulla carta.

Puntare il mouse per vedere il nome della stazione.

Clicca sopra per visualizzare le osservazioni e previsioni meteorologiche.

Per cambiare la mappa : fare clic sui pulsanti verdi con una croce nera per ingrandire, il pulsante verde con un trattino per diminuire, o sulla freccia verde per le mappe adiacenti.


METAR-TAF: